INFORMACIÓN METAR y TAF
METAR FOR GCLA
ADDS - METARS form results

(1056 UTC 19 July 2019)
Data provider http://aviationweather.gov/metar/data/
 
METAR text: GCLA 191030Z 03014KT 340V070 9999 FEW032 24/18 Q1019
Conditions at: GCLA (LA PALMA AIRPORT, ES) observed 1030 UTC 19 July 2019
Temperature: 24.0°C (75°F)
Dewpoint: 18.0°C (64°F) [RH = 69%]
Pressure (altimeter): 30.09 inches Hg (1019.0 mb)
Winds: from the NNE (30 degrees) at 16 MPH (14 knots; 7.2 m/s)
Visibility: 6 or more miles (10+ km)
Ceiling: at least 12,000 feet AGL
Clouds: few clouds at 3200 feet AGL
Weather: no significant weather observed at this time

METAR text: GCLA 191000Z 03016G26KT 360V060 9999 FEW032 24/18 Q1019
Conditions at: GCLA (LA PALMA AIRPORT, ES) observed 1000 UTC 19 July 2019
Temperature: 24.0°C (75°F)
Dewpoint: 18.0°C (64°F) [RH = 69%]
Pressure (altimeter): 30.09 inches Hg (1019.0 mb)
Winds: from the NNE (30 degrees) at 18 MPH (16 knots; 8.2 m/s)
gusting to 30 MPH (26 knots; 13.4 m/s)
Visibility: 6 or more miles (10+ km)
Ceiling: at least 12,000 feet AGL
Clouds: few clouds at 3200 feet AGL
Weather: no significant weather observed at this time

Forecast for: GCLA (LA PALMA AIRPORT, ES)
Text: TAF GCLA 190800Z 1909/2009 03017KT 9999 SCT035 TX25/1914Z TN21/2005Z
Forecast period: 0900 UTC 19 July 2019 to 0900 UTC 20 July 2019
Forecast type: FROM: standard forecast or significant change
Winds: from the NNE (30 degrees) at 20 MPH (17 knots; 8.7 m/s)
Visibility: 6 or more miles 10+ km)
Ceiling: at least 12,000 feet AGL
Clouds: scattered clouds at 3500 feet AGL
Weather: no significant weather forecast for this period
Text: PROB30
Forecast period: 1000 to 1700 UTC 19 July 2019
Forecast type: TEMPORARY: The following changes expected for less than half the time period
Winds: from the NNE (30 degrees) at 17 MPH (15 knots; 7.7 m/s)
gusting to 29 MPH (25 knots; 12.9 m/s)
Visibility: missing
Ceiling: unknown
Clouds: missing
Weather: no significant weather forecast for this period

 MAPA DE AEROPUERTO

 INFORMACIÓN DE PISTA
Pista 01 Longitud 7218 ft Ancho 148 ft
Elevación 103 ft Umbral desplazado 0 ft Rumbo de pista 359
Pista 19 Longitud 7218 ft Ancho 148 ft
Elevación 65 ft Umbral desplazado 0 ft Rumbo de pista 179

 FRECUANCIAS DEL AEROPUERTO
Tipo APP Nombre CANARIAS A Frecuencia 126.1 MHZ
Tipo ATIS Nombre INFO Frecuencia 118.6 MHZ
Tipo GND Nombre GND Frecuencia 121.8 MHZ
Tipo TWR Nombre TWR Frecuencia 118.9 MHZ

 RADIO AYUDAS DEL AEROPUERTO
Tipo DME Nombre La Palma Frecuencia 112400 KHZ
Tipo NDB Nombre La Palma Frecuencia 389 KHZ



              


PayPal

©2019 Oasis Virtual Airlines
Simulando desde el 2013

Oasis Líneas Aéreas Virtuales no está relacionada con ninguna compañía real.
Se trata de un entorno virtual de simulación aérea, sin ánimo de lucro.


Visitas:

VAM v2.6.2 [MOD.]